Terminal Aerodrome Forecast
Issued by NWS

Home | Current Version | Previous Version | Text Only | Print | Product List | Glossary On
Versions: 1 2 3 4 5 6 7 8 9 10 11 12 13 14 15 16 17 18 19 20 21
340
FTUS44 KLZK 250914 AAA
TAFLLQ
TAF AMD
KLLQ 250914Z 2509/2606 24003KT P6SM SCT035
      TEMPO 2510/2514 5SM BR OVC025
     FM251500 18005KT P6SM VCTS SCT050CB SCT250=

USA.gov is the U.S. government's official web portal to all federal, state and local government web resources and services.